Terminal Aerodrome Forecast
Issued by NWS

Home | Current Version | Previous Version | Text Only | Print | Product List | Glossary On
Versions: 1 2 3 4 5 6 7 8 9 10 11 12 13 14 15 16 17 18 19 20
000
FTUS43 KBIS 031249 AAA
TAFMOT
TAF AMD
KMOT 031249Z 0313/0412 10006KT 2SM BR SCT005
      TEMPO 0313/0314 1/4SM FG BKN003
     FM031500 14010KT P6SM SCT030
     FM031800 16013KT P6SM FEW120
     FM040300 VRB05KT P6SM SCT080
     FM040800 34008KT P6SM VCSH SCT050 BKN080=

USA.gov is the U.S. government's official web portal to all federal, state and local government web resources and services.